createdAt,value
2022-08-31T00:00:32.118Z,19.20
2022-08-31T00:03:18.068Z,19.00
2022-08-31T00:05:45.611Z,19.20
2022-08-31T00:08:12.418Z,19.30
2022-08-31T00:10:43.220Z,19.10
2022-08-31T00:13:12.293Z,19.10
2022-08-31T00:15:39.430Z,19.20
2022-08-31T00:18:06.482Z,19.20
2022-08-31T00:20:34.823Z,19.20
2022-08-31T00:23:04.186Z,19.20
2022-08-31T00:25:31.933Z,19.10
2022-08-31T00:27:58.708Z,19.10
2022-08-31T00:30:25.611Z,19.10
2022-08-31T00:32:52.405Z,19.10
2022-08-31T00:35:19.347Z,19.10
2022-08-31T00:37:46.074Z,19.10
2022-08-31T00:40:13.180Z,19.00
2022-08-31T00:42:40.424Z,19.10
2022-08-31T00:45:08.219Z,19.00
2022-08-31T00:47:35.869Z,19.10
2022-08-31T00:50:07.233Z,19.00
2022-08-31T00:52:38.736Z,19.00
2022-08-31T00:55:12.803Z,19.10
2022-08-31T00:57:43.243Z,19.00
2022-08-31T01:00:20.863Z,19.00
2022-08-31T01:02:48.474Z,18.90
2022-08-31T01:05:16.855Z,19.00
2022-08-31T01:07:47.643Z,18.80
2022-08-31T01:10:16.898Z,18.60
2022-08-31T01:12:45.474Z,18.70
2022-08-31T01:15:14.388Z,18.50
2022-08-31T01:17:44.135Z,18.80
2022-08-31T01:20:24.687Z,18.80
2022-08-31T01:23:11.023Z,18.60
2022-08-31T01:25:39.828Z,19.00
2022-08-31T01:28:08.450Z,19.10
2022-08-31T01:30:36.618Z,19.10
2022-08-31T01:33:04.210Z,19.10
2022-08-31T01:35:31.431Z,19.00
2022-08-31T01:37:58.679Z,19.10
2022-08-31T01:40:34.593Z,19.00
2022-08-31T01:43:01.562Z,19.10
2022-08-31T01:45:28.547Z,19.10
2022-08-31T01:47:55.334Z,19.00
2022-08-31T01:50:22.345Z,19.00
2022-08-31T01:52:49.019Z,18.90
2022-08-31T01:55:15.782Z,18.90
2022-08-31T01:57:42.780Z,18.90
2022-08-31T02:00:10.263Z,18.90
2022-08-31T02:02:37.359Z,18.80
2022-08-31T02:05:05.805Z,18.80
2022-08-31T02:07:32.884Z,18.90
2022-08-31T02:09:59.814Z,18.90
2022-08-31T02:12:26.648Z,18.90
2022-08-31T02:14:53.550Z,19.00
2022-08-31T02:17:20.298Z,19.00
2022-08-31T02:19:47.037Z,19.00
2022-08-31T02:22:13.830Z,18.90
2022-08-31T02:58:38.947Z,18.80
2022-08-31T03:01:05.789Z,18.80
2022-08-31T03:03:33.292Z,18.80
2022-08-31T03:06:00.100Z,18.80
2022-08-31T03:08:27.204Z,18.80
2022-08-31T03:10:56.327Z,18.90
2022-08-31T03:13:23.183Z,18.90
2022-08-31T03:15:49.930Z,19.00
2022-08-31T03:18:16.655Z,18.90
2022-08-31T03:20:43.382Z,18.80
2022-08-31T03:23:12.106Z,18.80
2022-08-31T03:25:39.725Z,19.00
2022-08-31T03:28:07.147Z,19.10
2022-08-31T03:30:34.042Z,19.00
2022-08-31T03:33:02.458Z,18.90
2022-08-31T03:35:30.385Z,18.90
2022-08-31T03:37:57.445Z,18.80
2022-08-31T03:40:24.359Z,18.80
2022-08-31T03:42:51.195Z,18.90
2022-08-31T03:45:18.131Z,18.90
2022-08-31T03:47:45.746Z,18.80
2022-08-31T03:50:12.821Z,18.80
2022-08-31T03:52:39.859Z,18.80
2022-08-31T03:55:07.367Z,18.80
2022-08-31T03:57:34.753Z,18.80
2022-08-31T04:00:02.122Z,18.80
2022-08-31T04:02:29.295Z,18.90
2022-08-31T04:04:57.187Z,18.80
2022-08-31T04:07:23.918Z,18.90
2022-08-31T04:09:51.027Z,18.80
2022-08-31T04:12:18.969Z,18.80
2022-08-31T04:14:45.960Z,18.80
2022-08-31T04:17:13.491Z,18.80
2022-08-31T04:19:41.345Z,18.80
2022-08-31T04:22:08.822Z,18.80
2022-08-31T04:24:35.608Z,18.70
2022-08-31T04:27:02.643Z,18.80
2022-08-31T04:29:29.402Z,18.80
2022-08-31T04:31:56.084Z,18.80
2022-08-31T04:34:22.971Z,18.80
2022-08-31T04:36:49.862Z,18.60
2022-08-31T04:39:17.379Z,18.70
2022-08-31T04:41:45.343Z,18.70
2022-08-31T04:44:17.771Z,18.70
2022-08-31T04:46:46.897Z,18.70
2022-08-31T04:49:15.098Z,18.70
2022-08-31T04:51:42.996Z,18.70
2022-08-31T04:54:11.635Z,18.50
2022-08-31T04:56:42.484Z,18.60
2022-08-31T04:59:11.937Z,18.50
2022-08-31T05:01:43.568Z,18.60
2022-08-31T05:04:12.761Z,18.70
2022-08-31T05:06:41.553Z,18.70
2022-08-31T05:09:11.060Z,18.70
2022-08-31T05:11:37.959Z,18.70
2022-08-31T05:14:07.047Z,18.50
2022-08-31T05:16:37.331Z,18.60
2022-08-31T05:19:04.046Z,18.60
2022-08-31T05:21:36.639Z,18.60
2022-08-31T05:24:12.948Z,18.60
2022-08-31T05:26:48.151Z,18.70
2022-08-31T05:29:16.935Z,18.70
2022-08-31T05:31:48.071Z,18.60
2022-08-31T05:34:17.853Z,18.60
2022-08-31T05:36:49.263Z,18.60
2022-08-31T05:39:15.909Z,18.60
2022-08-31T05:41:44.588Z,18.60
2022-08-31T05:44:12.164Z,18.60
2022-08-31T05:46:39.671Z,18.60
2022-08-31T05:49:08.176Z,18.50
2022-08-31T05:51:38.406Z,18.50
2022-08-31T05:54:07.070Z,18.50
2022-08-31T05:56:34.747Z,18.50
2022-08-31T05:59:01.735Z,18.40
2022-08-31T06:01:31.527Z,18.40
2022-08-31T06:03:59.643Z,18.40
2022-08-31T06:06:26.743Z,18.30
2022-08-31T06:08:53.949Z,18.20
2022-08-31T06:11:23.994Z,18.00
2022-08-31T06:13:52.627Z,18.10
2022-08-31T06:16:20.707Z,18.10
2022-08-31T06:18:50.811Z,18.10
2022-08-31T06:21:35.545Z,18.10
2022-08-31T06:24:03.958Z,18.10
2022-08-31T06:26:32.898Z,18.00
2022-08-31T06:29:02.703Z,18.00
2022-08-31T06:31:33.855Z,18.00
2022-08-31T06:34:01.512Z,18.00
2022-08-31T06:36:30.270Z,18.00
2022-08-31T06:38:59.927Z,18.00
2022-08-31T06:41:32.171Z,18.00
2022-08-31T06:44:04.073Z,18.00
2022-08-31T06:46:32.514Z,18.00
2022-08-31T06:48:59.536Z,18.60
2022-08-31T06:51:27.290Z,18.10
2022-08-31T06:53:55.691Z,18.00
2022-08-31T06:56:25.429Z,17.80
2022-08-31T06:58:54.163Z,17.80
2022-08-31T07:01:35.139Z,17.90
2022-08-31T07:04:09.131Z,17.90
2022-08-31T07:06:39.289Z,18.00
2022-08-31T07:09:10.838Z,17.80
2022-08-31T07:11:44.727Z,17.80
2022-08-31T07:14:14.378Z,17.70
2022-08-31T07:16:42.835Z,17.70
2022-08-31T07:19:10.849Z,17.70
2022-08-31T07:21:46.160Z,17.80
2022-08-31T07:24:15.695Z,17.80
2022-08-31T07:26:45.741Z,17.80
2022-08-31T07:29:14.889Z,17.80
2022-08-31T07:32:00.523Z,17.80
2022-08-31T07:34:30.058Z,17.90
2022-08-31T07:37:17.730Z,18.10
2022-08-31T07:40:07.493Z,17.90
2022-08-31T07:42:41.058Z,18.10
2022-08-31T07:45:12.247Z,18.10
2022-08-31T07:47:45.058Z,17.90
2022-08-31T07:50:12.162Z,18.10
2022-08-31T07:52:47.193Z,18.30
2022-08-31T07:55:16.632Z,18.40
2022-08-31T07:57:44.072Z,18.40
2022-08-31T08:00:21.370Z,18.40
2022-08-31T08:02:52.824Z,18.50
2022-08-31T08:05:26.691Z,18.50
2022-08-31T08:07:56.005Z,18.50
2022-08-31T08:10:23.986Z,18.30
2022-08-31T08:12:57.188Z,18.50
2022-08-31T08:15:24.910Z,18.50
2022-08-31T08:17:51.726Z,18.50
2022-08-31T08:20:18.885Z,18.40
2022-08-31T08:23:01.034Z,18.40
2022-08-31T08:25:27.983Z,18.30
2022-08-31T08:27:55.338Z,18.30
2022-08-31T08:30:22.558Z,18.50
2022-08-31T08:32:49.350Z,18.50
2022-08-31T08:35:16.529Z,18.80
2022-08-31T08:37:58.437Z,18.70
2022-08-31T08:40:39.405Z,18.80
2022-08-31T08:43:06.189Z,18.70
2022-08-31T08:45:33.820Z,18.60
2022-08-31T08:48:00.994Z,18.20
2022-08-31T08:50:29.097Z,18.20
2022-08-31T08:52:58.847Z,18.10
2022-08-31T08:55:35.032Z,18.20
2022-08-31T08:58:05.810Z,18.10
2022-08-31T09:00:33.283Z,18.20
2022-08-31T09:03:17.960Z,18.10
2022-08-31T09:06:09.414Z,18.10
2022-08-31T09:08:43.867Z,17.90
2022-08-31T09:11:17.644Z,18.10
2022-08-31T09:13:53.435Z,18.20
2022-08-31T09:16:25.991Z,18.20
2022-08-31T09:18:59.960Z,18.40
2022-08-31T09:21:36.897Z,18.30
2022-08-31T09:24:09.506Z,18.40
2022-08-31T09:26:56.350Z,18.30
2022-08-31T09:29:30.544Z,18.20
2022-08-31T09:32:07.137Z,18.40
2022-08-31T09:34:41.110Z,18.40
2022-08-31T09:37:26.176Z,18.50
2022-08-31T09:39:53.951Z,18.50
2022-08-31T09:42:32.075Z,18.50
2022-08-31T09:45:05.790Z,18.50
2022-08-31T09:47:38.075Z,18.60
2022-08-31T09:50:09.393Z,18.60
2022-08-31T09:52:55.400Z,18.60
2022-08-31T09:55:27.958Z,18.70
2022-08-31T09:58:11.101Z,18.70
2022-08-31T10:00:44.775Z,18.70
2022-08-31T10:03:18.893Z,18.80
2022-08-31T10:05:46.651Z,19.00
2022-08-31T10:08:42.079Z,19.10
2022-08-31T10:11:13.437Z,19.10
2022-08-31T10:13:42.033Z,19.30
2022-08-31T10:16:26.186Z,19.30
2022-08-31T10:19:01.813Z,19.20
2022-08-31T10:21:52.027Z,19.30
2022-08-31T10:24:28.759Z,19.30
2022-08-31T10:27:38.402Z,19.20
2022-08-31T10:30:22.166Z,19.10
2022-08-31T10:33:00.815Z,19.10
2022-08-31T10:35:37.140Z,19.10
2022-08-31T10:38:19.946Z,19.20
2022-08-31T10:40:59.261Z,19.30
2022-08-31T10:43:38.947Z,19.50
2022-08-31T10:46:06.412Z,19.60
2022-08-31T10:48:33.932Z,19.50
2022-08-31T10:51:22.282Z,19.50
2022-08-31T10:53:58.997Z,19.50
2022-08-31T10:56:39.743Z,19.50
2022-08-31T10:59:20.969Z,19.50
2022-08-31T11:02:26.668Z,19.50
2022-08-31T11:04:59.108Z,19.60
2022-08-31T11:07:47.555Z,19.60
2022-08-31T11:10:25.607Z,19.90
2022-08-31T11:12:58.993Z,20.10
2022-08-31T11:15:58.230Z,20.40
2022-08-31T11:18:45.991Z,20.60
2022-08-31T11:21:42.249Z,20.80
2022-08-31T11:24:37.340Z,20.80
2022-08-31T11:27:18.945Z,20.70
2022-08-31T11:29:51.910Z,20.90
2022-08-31T11:32:26.087Z,21.40
2022-08-31T11:34:56.483Z,22.00
2022-08-31T11:37:54.405Z,22.60
2022-08-31T11:40:42.202Z,22.40
2022-08-31T11:43:31.579Z,21.80
2022-08-31T11:46:23.972Z,21.60
2022-08-31T11:48:53.877Z,21.70
2022-08-31T11:51:36.046Z,22.00
2022-08-31T11:54:11.546Z,22.20
2022-08-31T11:56:41.406Z,21.90
2022-08-31T11:59:35.139Z,22.60
2022-08-31T12:02:20.585Z,22.80
2022-08-31T12:04:53.481Z,22.10
2022-08-31T12:07:29.333Z,21.80
2022-08-31T12:10:17.583Z,21.50
2022-08-31T12:13:36.455Z,21.40
2022-08-31T12:16:07.446Z,21.20
2022-08-31T12:18:53.993Z,20.90
2022-08-31T12:21:42.529Z,21.00
2022-08-31T12:24:18.834Z,21.20
2022-08-31T12:26:57.958Z,21.00
2022-08-31T12:29:36.769Z,21.40
2022-08-31T12:32:17.114Z,21.40
2022-08-31T12:34:55.286Z,21.80
2022-08-31T12:37:36.771Z,22.00
2022-08-31T12:40:14.822Z,22.00
2022-08-31T12:42:59.784Z,21.60
2022-08-31T12:45:38.541Z,21.80
2022-08-31T12:48:20.387Z,21.60
2022-08-31T12:50:52.535Z,21.70
2022-08-31T12:53:40.506Z,21.90
2022-08-31T12:56:45.896Z,21.50
2022-08-31T12:59:59.348Z,21.30
2022-08-31T13:05:34.488Z,21.30
2022-08-31T13:08:01.762Z,21.40
2022-08-31T13:10:30.652Z,21.50
2022-08-31T13:13:08.888Z,21.40
2022-08-31T13:15:43.647Z,21.20
2022-08-31T13:18:19.139Z,21.00
2022-08-31T13:20:46.642Z,20.90
2022-08-31T13:23:22.283Z,21.30
2022-08-31T13:26:20.534Z,21.50
2022-08-31T13:28:56.699Z,21.50
2022-08-31T13:31:26.832Z,21.20
2022-08-31T13:33:56.865Z,21.00
2022-08-31T13:36:34.813Z,21.00
2022-08-31T13:39:11.485Z,21.10
2022-08-31T13:41:56.031Z,21.10
2022-08-31T13:44:31.650Z,21.00
2022-08-31T13:47:02.961Z,21.10
2022-08-31T13:49:40.587Z,21.40
2022-08-31T13:52:21.318Z,21.50
2022-08-31T13:55:10.305Z,21.80
2022-08-31T13:57:38.442Z,23.10
2022-08-31T14:00:32.783Z,23.80
2022-08-31T14:03:32.496Z,23.70
2022-08-31T14:06:23.561Z,23.30
2022-08-31T14:09:03.526Z,22.70
2022-08-31T14:11:31.860Z,22.20
2022-08-31T14:14:12.694Z,22.00
2022-08-31T14:16:43.692Z,22.20
2022-08-31T14:19:33.724Z,22.30
2022-08-31T14:22:32.990Z,22.30
2022-08-31T14:25:00.840Z,22.10
2022-08-31T14:27:28.826Z,21.70
2022-08-31T14:29:57.655Z,21.70
2022-08-31T14:32:25.657Z,21.60
2022-08-31T14:34:53.283Z,21.50
2022-08-31T14:37:20.216Z,21.40
2022-08-31T14:39:53.593Z,21.20
2022-08-31T14:42:26.433Z,21.10
2022-08-31T14:45:03.097Z,21.10
2022-08-31T14:47:34.107Z,21.10
2022-08-31T14:50:06.839Z,20.90
2022-08-31T14:52:40.164Z,20.80
2022-08-31T14:55:09.090Z,21.00
2022-08-31T14:57:38.326Z,20.80
2022-08-31T15:00:07.155Z,20.90
2022-08-31T15:02:34.460Z,21.10
2022-08-31T15:05:06.358Z,21.00
2022-08-31T15:07:36.290Z,20.70
2022-08-31T15:10:06.543Z,21.00
2022-08-31T15:12:33.911Z,20.90
2022-08-31T15:15:00.786Z,20.90
2022-08-31T15:17:29.478Z,21.00
2022-08-31T15:19:57.287Z,21.10
2022-08-31T15:22:26.018Z,21.10
2022-08-31T15:24:53.539Z,21.20
2022-08-31T15:27:20.822Z,21.20
2022-08-31T15:29:59.111Z,21.10
2022-08-31T15:32:26.042Z,21.00
2022-08-31T15:34:58.602Z,21.00
2022-08-31T15:37:31.629Z,21.10
2022-08-31T15:40:00.804Z,21.30
2022-08-31T15:42:29.400Z,21.30
2022-08-31T15:44:56.812Z,21.30
2022-08-31T15:47:48.887Z,21.20
2022-08-31T15:50:19.158Z,21.20
2022-08-31T15:52:51.591Z,21.10
2022-08-31T15:55:23.133Z,21.10
2022-08-31T15:57:53.943Z,21.10
2022-08-31T16:00:23.342Z,21.20
2022-08-31T16:02:57.028Z,21.10
2022-08-31T16:05:28.090Z,21.20
2022-08-31T16:07:55.510Z,21.20
2022-08-31T16:10:23.461Z,21.20
2022-08-31T16:12:51.846Z,21.20
2022-08-31T16:15:20.403Z,21.10
2022-08-31T16:17:50.664Z,21.10
2022-08-31T16:20:17.428Z,21.10
2022-08-31T16:22:44.520Z,21.10
2022-08-31T16:25:14.161Z,21.10
2022-08-31T16:27:43.241Z,21.10
2022-08-31T16:30:12.219Z,20.90
2022-08-31T16:32:39.156Z,20.80
2022-08-31T16:35:06.460Z,20.80
2022-08-31T16:37:33.924Z,20.80
2022-08-31T16:40:00.818Z,20.90
2022-08-31T16:42:27.973Z,20.80
2022-08-31T16:44:59.857Z,20.70
2022-08-31T16:47:29.230Z,20.70
2022-08-31T16:49:56.146Z,20.70
2022-08-31T16:52:26.489Z,20.70
2022-08-31T16:54:55.807Z,20.60
2022-08-31T16:57:26.953Z,20.60
2022-08-31T16:59:54.903Z,20.70
2022-08-31T17:02:22.994Z,20.70
2022-08-31T17:04:53.084Z,20.60
2022-08-31T17:07:22.005Z,20.60
2022-08-31T17:09:50.016Z,20.50
2022-08-31T17:12:21.258Z,20.40
2022-08-31T17:14:52.091Z,20.40
2022-08-31T17:17:24.981Z,20.40
2022-08-31T17:19:52.887Z,20.30
2022-08-31T17:22:28.481Z,20.30
2022-08-31T17:25:03.478Z,20.30
2022-08-31T17:27:32.931Z,20.30
2022-08-31T17:30:05.587Z,20.20
2022-08-31T17:32:32.499Z,20.10
2022-08-31T17:34:59.203Z,20.10
2022-08-31T17:37:36.305Z,20.00
2022-08-31T17:40:07.734Z,20.10
2022-08-31T17:42:35.009Z,20.00
2022-08-31T17:45:04.988Z,19.90
2022-08-31T17:47:33.061Z,19.80
2022-08-31T17:50:00.159Z,19.80
2022-08-31T17:52:27.292Z,19.70
2022-08-31T17:54:54.073Z,19.70
2022-08-31T17:57:24.792Z,19.70
2022-08-31T17:59:52.632Z,19.70
2022-08-31T18:02:32.846Z,19.70
2022-08-31T18:05:00.631Z,19.60
2022-08-31T18:07:28.192Z,19.60
2022-08-31T18:09:57.687Z,19.50
2022-08-31T18:12:25.450Z,19.50
2022-08-31T18:14:53.643Z,19.50
2022-08-31T18:17:22.358Z,19.40
2022-08-31T18:19:49.087Z,19.30
2022-08-31T18:22:15.882Z,19.30
2022-08-31T18:24:42.935Z,19.30
2022-08-31T18:27:14.943Z,19.30
2022-08-31T18:29:43.190Z,19.20
2022-08-31T18:32:10.680Z,19.10
2022-08-31T18:34:40.200Z,19.10
2022-08-31T18:37:10.796Z,19.10
2022-08-31T18:40:00.038Z,19.00
2022-08-31T18:42:46.443Z,19.00
2022-08-31T18:45:18.185Z,18.90
2022-08-31T18:48:07.226Z,18.90
2022-08-31T18:50:36.650Z,18.90
2022-08-31T18:53:10.726Z,18.90
2022-08-31T18:55:42.679Z,18.90
2022-08-31T18:58:09.601Z,18.80
2022-08-31T19:00:36.578Z,18.80
2022-08-31T19:03:03.660Z,18.80
2022-08-31T19:05:31.447Z,18.80
2022-08-31T19:08:00.045Z,18.80
2022-08-31T19:10:26.883Z,18.70
2022-08-31T19:12:56.594Z,18.80
2022-08-31T19:15:35.977Z,18.70
2022-08-31T19:18:05.088Z,18.70
2022-08-31T19:20:33.251Z,18.60
2022-08-31T19:23:00.482Z,18.60
2022-08-31T19:25:27.674Z,18.60
2022-08-31T19:27:54.736Z,18.70
2022-08-31T19:30:27.219Z,18.70
2022-08-31T19:32:56.196Z,18.80
2022-08-31T19:35:25.885Z,18.70
2022-08-31T19:37:53.574Z,18.70
2022-08-31T19:40:20.644Z,18.70
2022-08-31T19:43:42.938Z,18.60
2022-08-31T19:45:44.901Z,18.60
2022-08-31T19:48:12.904Z,18.50
2022-08-31T19:50:42.142Z,18.50
2022-08-31T19:53:13.515Z,18.40
2022-08-31T19:55:50.696Z,18.40
2022-08-31T19:58:19.710Z,18.30
2022-08-31T20:00:48.413Z,18.30
2022-08-31T20:03:18.284Z,18.30
2022-08-31T20:05:45.064Z,18.30
2022-08-31T20:08:12.212Z,18.20
2022-08-31T20:10:44.578Z,18.20
2022-08-31T20:13:12.285Z,18.20
2022-08-31T20:15:44.648Z,18.10
2022-08-31T20:18:12.411Z,18.10
2022-08-31T20:20:44.885Z,18.00
2022-08-31T20:23:16.436Z,18.00
2022-08-31T20:25:45.142Z,18.00
2022-08-31T20:28:12.890Z,18.00
2022-08-31T20:30:41.717Z,18.00
2022-08-31T20:33:09.521Z,18.00
2022-08-31T20:35:47.053Z,18.00
2022-08-31T20:38:15.375Z,17.90
2022-08-31T20:40:44.553Z,17.90
2022-08-31T20:43:12.789Z,17.80
2022-08-31T20:45:40.978Z,17.80
2022-08-31T20:48:27.087Z,17.80
2022-08-31T20:50:55.622Z,17.80
2022-08-31T20:53:25.027Z,17.80
2022-08-31T20:56:14.902Z,17.80
2022-08-31T20:58:45.930Z,17.70
2022-08-31T21:01:13.758Z,17.70
2022-08-31T21:03:40.960Z,17.70
2022-08-31T21:06:11.419Z,17.70
2022-08-31T21:08:42.459Z,17.70
2022-08-31T21:11:17.225Z,17.60
2022-08-31T21:13:45.462Z,17.60
2022-08-31T21:16:13.415Z,17.60
2022-08-31T21:18:40.564Z,17.60
2022-08-31T21:21:14.425Z,17.70
2022-08-31T21:23:41.142Z,17.70
2022-08-31T21:26:08.611Z,17.60
2022-08-31T21:28:38.387Z,17.70
2022-08-31T21:31:18.473Z,17.70
2022-08-31T21:34:00.846Z,17.70
2022-08-31T21:36:29.661Z,17.70
2022-08-31T21:38:59.865Z,17.70
2022-08-31T21:41:28.635Z,17.60
2022-08-31T21:43:57.152Z,17.70
2022-08-31T21:46:26.703Z,17.60
2022-08-31T21:48:56.685Z,17.70
2022-08-31T21:51:24.764Z,17.70
2022-08-31T21:53:54.664Z,17.60
2022-08-31T21:56:27.323Z,17.70
2022-08-31T21:58:55.890Z,17.80
2022-08-31T22:01:23.936Z,17.80
2022-08-31T22:03:56.174Z,17.80
2022-08-31T22:06:29.979Z,17.70
2022-08-31T22:09:00.041Z,17.60
2022-08-31T22:11:30.330Z,17.60
2022-08-31T22:13:58.512Z,17.60
2022-08-31T22:16:25.543Z,17.50
2022-08-31T22:19:04.092Z,17.50
2022-08-31T22:21:34.489Z,17.40
2022-08-31T22:24:05.730Z,17.30
2022-08-31T22:26:45.772Z,17.30
2022-08-31T22:29:15.269Z,17.30
2022-08-31T22:31:42.482Z,17.20
2022-08-31T22:34:11.155Z,17.20
2022-08-31T22:36:38.414Z,17.20
2022-08-31T22:39:09.339Z,17.10
2022-08-31T22:41:37.396Z,17.10
2022-08-31T22:44:06.839Z,17.10
2022-08-31T22:46:35.367Z,17.10
2022-08-31T22:49:02.241Z,17.00
2022-08-31T22:51:29.650Z,17.00
2022-08-31T22:53:56.457Z,17.00
2022-08-31T22:56:27.167Z,17.00
2022-08-31T22:58:55.882Z,17.00
2022-08-31T23:01:33.745Z,17.00
2022-08-31T23:04:06.490Z,17.00
2022-08-31T23:06:36.215Z,16.90
2022-08-31T23:09:06.762Z,16.90
2022-08-31T23:11:33.767Z,16.90
2022-08-31T23:14:05.343Z,16.90
2022-08-31T23:16:38.075Z,16.90
2022-08-31T23:19:11.993Z,16.90
2022-08-31T23:21:44.924Z,16.80
2022-08-31T23:24:13.683Z,16.80
2022-08-31T23:26:40.635Z,16.90
2022-08-31T23:29:09.230Z,16.90
2022-08-31T23:31:37.972Z,16.90
2022-08-31T23:34:11.430Z,16.80
2022-08-31T23:36:43.510Z,16.80
2022-08-31T23:39:10.420Z,16.80
2022-08-31T23:41:38.766Z,16.80
2022-08-31T23:44:09.224Z,16.80
2022-08-31T23:46:38.064Z,16.70
2022-08-31T23:49:08.014Z,16.60
2022-08-31T23:51:35.650Z,16.60
2022-08-31T23:54:06.309Z,16.50
2022-08-31T23:56:35.913Z,16.50
2022-08-31T23:59:13.894Z,16.40
